»·PEaware :: UAL357 KSFO-KLAS

UAL357 :: KSFO-KLAS

FLIGHT INFORMATION

Flight Status: Arrived
Operator:
United Airlines
More flights by this operator :: More flights under this callsign
Pilot: John C. (18682)
Aircraft: BOEING 737-800
(B738)
More flights by this aircraft type
Origin: KSFO San Francisco Intl
United States
Destination: KLAS McCarran Intl
United States
More flights between these airports :: More routes between these airports
Route: SSTIK4 NTELL Q162 ESSAA BTY SUNST4
File this flight plan on PilotEdge
Remarks:
Altitude:
(Current/Filed)
39,000ft
Speed:
(Current/Filed)
449kts
Departed: 10-Jan-21 02:28 PM
Arrived: 10-Jan-21 03:35 PM
Distance/Time
Traveled:
359nm/1:07
Distance/Time
To Go:
Arrived

Flight Plot

Page will automatically refresh every two minutes.

Flight plan parsing failed; only flown route is shown


Map Options




Map Legend


Flown Route
Filed Route
Departure Airport
Arrival Airport
Navaid (VOR, NDB)
Fix

Horizontal Profiles

Position Reports

Time Latitude Longitude Heading Altitude Ground
Speed
10-Jan-21 14:03 37.618937 -122.385950 170 32ft 0kts
10-Jan-21 14:04 37.618937 -122.385950 170 32ft 0kts
10-Jan-21 14:05 37.618937 -122.385950 170 32ft 0kts
10-Jan-21 14:06 37.618937 -122.385950 170 32ft 0kts
10-Jan-21 14:07 37.618937 -122.385950 170 32ft 0kts
10-Jan-21 14:08 37.618937 -122.385950 170 32ft 0kts
10-Jan-21 14:09 37.618937 -122.385950 170 32ft 0kts
10-Jan-21 14:10 37.618937 -122.385950 170 32ft 0kts
10-Jan-21 14:11 37.618937 -122.385950 170 32ft 0kts
10-Jan-21 14:12 37.618937 -122.385950 170 32ft 0kts
10-Jan-21 14:13 37.618937 -122.385950 170 32ft 0kts
10-Jan-21 14:13 37.618937 -122.385950 170 32ft 0kts
10-Jan-21 14:14 37.618937 -122.385950 170 32ft 0kts
10-Jan-21 14:16 37.618937 -122.385950 170 32ft 0kts
10-Jan-21 14:16 37.618937 -122.385950 170 32ft 0kts
10-Jan-21 14:17 37.619313 -122.386028 158 32ft 2kts
10-Jan-21 14:18 37.619469 -122.386472 80 32ft 0kts
10-Jan-21 14:19 37.619469 -122.386472 80 32ft 0kts
10-Jan-21 14:20 37.619536 -122.386006 76 32ft 7kts
10-Jan-21 14:21 37.620103 -122.385284 28 32ft 0kts
10-Jan-21 14:22 37.620089 -122.383040 119 32ft 13kts
10-Jan-21 14:23 37.618158 -122.379606 162 31ft 9kts
10-Jan-21 14:24 37.614732 -122.380885 206 32ft 16kts
10-Jan-21 14:25 37.610351 -122.383821 212 32ft 14kts
10-Jan-21 14:26 37.608205 -122.383033 86 32ft 10kts
10-Jan-21 14:27 37.626919 -122.370310 26 191ft 168kts
10-Jan-21 14:28 37.673489 -122.360370 347 2276ft 200kts
10-Jan-21 14:29 37.695461 -122.418741 229 4386ft 268kts
10-Jan-21 14:30 37.620495 -122.439366 193 7316ft 290kts
10-Jan-21 14:31 37.540180 -122.460512 192 10242ft 304kts
10-Jan-21 14:32 37.455634 -122.414024 126 11803ft 374kts
10-Jan-21 14:33 37.404395 -122.298667 103 14457ft 387kts
10-Jan-21 14:34 37.377262 -122.164947 100 17024ft 402kts
10-Jan-21 14:35 37.349627 -122.026196 100 19264ft 419kts
10-Jan-21 14:36 37.321214 -121.884157 100 20087ft 421kts
10-Jan-21 14:37 37.292076 -121.739074 99 22123ft 435kts
10-Jan-21 14:38 37.261910 -121.590013 99 24015ft 448kts
10-Jan-21 14:39 37.230560 -121.436174 99 25753ft 459kts
10-Jan-21 14:40 37.198376 -121.279323 99 27316ft 470kts
10-Jan-21 14:41 37.165302 -121.119162 99 28728ft 480kts
10-Jan-21 14:42 37.131186 -120.955453 99 29911ft 493kts
10-Jan-21 14:43 37.096189 -120.788908 100 31349ft 495kts
10-Jan-21 14:44 37.061115 -120.623125 100 33031ft 489kts
10-Jan-21 14:45 37.026155 -120.459456 100 34435ft 487kts
10-Jan-21 14:46 36.991295 -120.296872 101 35872ft 480kts
10-Jan-21 14:47 36.956795 -120.137292 102 37091ft 476kts
10-Jan-21 14:48 36.921962 -119.977393 102 38034ft 476kts
10-Jan-21 14:49 36.919873 -119.819661 62 38888ft 454kts
10-Jan-21 14:50 36.969531 -119.673983 62 39301ft 460kts
10-Jan-21 14:51 37.018161 -119.527138 61 39302ft 455kts
10-Jan-21 14:52 37.066023 -119.380625 60 39303ft 455kts
10-Jan-21 14:53 37.112966 -119.235749 60 39297ft 453kts
10-Jan-21 14:54 37.160042 -119.089658 59 39272ft 452kts
10-Jan-21 14:55 37.206727 -118.943946 60 39262ft 451kts
10-Jan-21 14:56 37.253495 -118.797030 63 39263ft 455kts
10-Jan-21 14:57 37.280638 -118.639718 74 39261ft 467kts
10-Jan-21 14:58 37.298129 -118.478126 76 39256ft 468kts
10-Jan-21 14:59 37.313481 -118.317558 77 39256ft 466kts
10-Jan-21 15:00 37.328395 -118.155028 77 39256ft 469kts
10-Jan-21 15:01 37.342847 -117.993331 77 39255ft 467kts
10-Jan-21 15:02 37.342081 -117.827761 88 39256ft 479kts
10-Jan-21 15:03 37.329667 -117.663071 90 39256ft 471kts
10-Jan-21 15:04 37.315510 -117.498346 90 39216ft 476kts
10-Jan-21 15:05 37.289906 -117.335673 110 36659ft 488kts
10-Jan-21 15:06 37.219783 -117.189490 122 33913ft 495kts
10-Jan-21 15:07 37.138630 -117.049968 126 30941ft 496kts
10-Jan-21 15:08 37.045340 -116.928657 148 28600ft 472kts
10-Jan-21 15:09 36.936979 -116.844892 152 26653ft 448kts
10-Jan-21 15:10 36.833798 -116.764618 144 24855ft 434kts
10-Jan-21 15:11 36.742819 -116.663175 132 23983ft 443kts
10-Jan-21 15:12 36.660929 -116.547747 131 23981ft 443kts
10-Jan-21 15:13 36.579408 -116.432217 131 23939ft 440kts
10-Jan-21 15:14 36.501743 -116.322269 131 22447ft 425kts
10-Jan-21 15:15 36.423847 -116.212521 131 20566ft 414kts
10-Jan-21 15:16 36.349217 -116.107913 130 18748ft 396kts
10-Jan-21 15:17 36.277731 -116.007809 130 16976ft 380kts
10-Jan-21 15:18 36.211193 -115.913749 124 16097ft 343kts
10-Jan-21 15:19 36.171532 -115.809710 108 15169ft 332kts
10-Jan-21 15:20 36.137953 -115.705134 108 14169ft 325kts
10-Jan-21 15:21 36.104753 -115.602297 108 13166ft 318kts
10-Jan-21 15:22 36.072284 -115.502112 108 12145ft 307kts
10-Jan-21 15:23 36.041181 -115.406275 108 11171ft 289kts
10-Jan-21 15:24 36.026543 -115.314869 90 10433ft 265kts
10-Jan-21 15:25 36.020571 -115.228547 90 9524ft 245kts
10-Jan-21 15:26 36.015425 -115.145900 90 8298ft 239kts
10-Jan-21 15:27 36.011531 -115.065689 90 7396ft 219kts
10-Jan-21 15:28 36.008537 -114.995609 90 7017ft 201kts
10-Jan-21 15:29 36.027090 -114.941098 0 6218ft 191kts
10-Jan-21 15:30 36.061214 -114.985837 301 4865ft 189kts
10-Jan-21 15:31 36.073659 -115.047108 270 3523ft 173kts
10-Jan-21 15:32 36.073534 -115.102882 271 2556ft 158kts
10-Jan-21 15:33 36.073683 -115.146679 272 2108ft 48kts
10-Jan-21 15:34 36.074968 -115.150886 314 2122ft 10kts
10-Jan-21 15:35 36.077509 -115.152609 334 2124ft 0kts
10-Jan-21 15:36 36.078769 -115.151457 90 2117ft 15kts
10-Jan-21 15:37 36.078347 -115.144621 94 2094ft 22kts
10-Jan-21 15:38 36.078723 -115.140231 311 2080ft 6kts
10-Jan-21 15:40 36.081246 -115.141588 0 2078ft 19kts
10-Jan-21 15:41 36.082526 -115.140188 89 2072ft 0kts
10-Jan-21 15:42 36.082526 -115.140188 89 2072ft 0kts

Navigation Log

Ident Type
Flight plan parsing failed, navigation log unavailable